• Join FlightAware (Why Join?)
  • Login
  • US Flag 
01:50AM EDT


 

Airport Tracker/Info


-or-


 

Live Flight TrackerFlight Track Log ✈ SWA8700 ✈ 19-Oct-2012 ✈ KPIT - KVQQ

Flight Track Log - Related Links

Times and Time Zones

All times are in EDT time to prevent confusion due to time zone crossing. See the SWA8700 flight status page for this flight to view local times or setup timezone preferences in your user account.

Time Position Orientation Groundspeed Altitude Reporting Facility
EDT Latitude Longitude Course Direction KTS MPH feet Rate Location/Type
08:44AM 40.5036 -80.2894 266° West 176 203 3,200  Level FAA TRACON SMA TRACON (SMA)
08:44AM 40.5025 -80.3106 210° Southwest 202 232 4,300 2,460 Climbing FAA TRACON SMA TRACON (SMA)
08:44AM 40.4861 -80.3231 175° South 186 214 4,900 1,500 Climbing FAA TRACON SMA TRACON (SMA)
08:45AM 40.4703 -80.3214 175° South 194 223 5,300 1,500 Climbing FAA TRACON SMA TRACON (SMA)
08:45AM 40.4514 -80.3192 176° South 235 270 5,900 3,480 Climbing FAA TRACON SMA TRACON (SMA)
08:45AM 40.4244 -80.3164 176° South 251 289 7,700 5,340 Climbing FAA TRACON SMA TRACON (SMA)
08:46AM 40.4022 -80.3144 175° South 256 295 9,400 4,620 Climbing FAA TRACON SMA TRACON (SMA)
08:46AM 40.3744 -80.3114 176° South 267 307 10,800 3,600 Climbing FAA TRACON SMA TRACON (SMA)
08:46AM 40.3475 -80.3086 175° South 299 344 11,800 3,660 Climbing FAA TRACON SMA TRACON (SMA)
08:47AM 40.3200 -80.3056 176° South 322 371 13,200 4,920 Climbing FAA TRACON SMA TRACON (SMA)
08:47AM 40.2858 -80.3025 175° South 320 368 15,200 5,220 Climbing FAA TRACON SMA TRACON (SMA)
08:47AM 40.2583 -80.2992 175° South 321 369 16,700 4,500 Climbing FAA TRACON SMA TRACON (SMA)
08:48AM 40.2308 -80.2958 175° South 323 372 18,200 4,500 Climbing FAA TRACON SMA TRACON (SMA)
08:48AM 40.1956 -80.2917 178° South 328 377 19,700 4,140 Climbing FAA TRACON SMA TRACON (SMA)
08:48AM 40.1686 -80.2906 196° South 334 384 20,900 3,060 Climbing FAA TRACON SMA TRACON (SMA)
08:49AM 40.1397 -80.3017 204° Southwest 325 374 21,800 1,620 Climbing FAA TRACON SMA TRACON (SMA)
08:49AM 40.1089 -80.3194 209° Southwest 338 389 22,000 300 Climbing FAA TRACON SMA TRACON (SMA)
08:49AM 40.0828 -80.3383 206° Southwest 339 390 22,000  Level FAA TRACON SMA TRACON (SMA)
08:50AM 40.0525 -80.3578 206° Southwest 360 414 22,000  Level FAA TRACON SMA TRACON (SMA)
08:50AM 40.0281 -80.3736 207° Southwest 361 415 22,000  Level FAA TRACON SMA TRACON (SMA)
08:50AM 39.9900 -80.3989 206° Southwest 347 399 22,000  Level Cleveland Center
08:51AM 39.8961 -80.4586 194° South 367 422 22,000  Level Cleveland Center
08:52AM 39.7961 -80.4911 194° South 372 428 22,000  Level Cleveland Center
08:53AM 39.6919 -80.5236 193° South 372 428 22,000  Level Cleveland Center
08:55AM 39.5806 -80.5575 192° South 378 435 22,000  Level FAA TRACON SMA TRACON (SMA)
08:56AM 39.4117 -80.6033 194° South 382 440 22,000  Level Indianapolis Center
08:57AM 39.3122 -80.6344 193° South 377 434 22,000  Level Indianapolis Center
08:58AM 39.2086 -80.6653 192° South 377 434 22,000  Level Indianapolis Center
08:59AM 39.1053 -80.6936 193° South 377 434 22,000  Level Indianapolis Center
09:00AM 39.0017 -80.7244 193° South 377 434 22,000  Level Indianapolis Center
09:01AM 38.9003 -80.7553 193° South 377 434 22,000  Level Indianapolis Center
09:02AM 38.7986 -80.7858 192° South 377 434 22,000  Level Indianapolis Center
09:03AM 38.6950 -80.8136 193° South 377 434 22,000  Level Indianapolis Center
09:04AM 38.5914 -80.8442 193° South 377 434 22,000  Level Indianapolis Center
09:05AM 38.4900 -80.8744 192° South 377 434 22,000  Level Indianapolis Center
09:06AM 38.3864 -80.9022 193° South 377 434 22,000  Level Indianapolis Center
09:07AM 38.2828 -80.9325 193° South 382 440 22,000  Level Indianapolis Center
09:08AM 38.1708 -80.9656 193° South 382 440 22,000  Level Indianapolis Center
09:09AM 38.0650 -80.9956 192° South 382 440 22,000  Level Indianapolis Center
09:10AM 37.9614 -81.0228 194° South 388 447 22,000  Level Indianapolis Center
09:11AM 37.8597 -81.0553 194° South 388 447 22,000  Level Indianapolis Center
09:12AM 37.7542 -81.0878 193° South 393 452 22,000  Level Indianapolis Center
09:13AM 37.6506 -81.1175 193° South 393 452 22,000  Level Indianapolis Center
09:14AM 37.5467 -81.1469 192° South 393 452 22,000  Level Indianapolis Center
09:17AM 37.2894 -81.2164 192° South 389 448 22,000  Level Atlanta Center
09:18AM 37.1836 -81.2436 193° South 395 455 22,000  Level Atlanta Center
09:19AM 37.0822 -81.2733 191° South 395 455 22,000  Level Atlanta Center
09:20AM 36.9725 -81.3006 193° South 394 453 22,000  Level Atlanta Center
09:21AM 36.8708 -81.3300 192° South 394 453 22,000  Level Atlanta Center
09:22AM 36.7631 -81.3594 191° South 381 438 22,000  Level Atlanta Center
09:23AM 36.6636 -81.3836 193° South 369 425 22,000  Level Atlanta Center
09:24AM 36.5642 -81.4128 192° South 369 425 22,000  Level Atlanta Center
09:25AM 36.4644 -81.4392 192° South 369 425 22,000  Level Atlanta Center
09:26AM 36.3672 -81.4656 192° South 369 425 22,000  Level Atlanta Center
09:27AM 36.2717 -81.4917 193° South 369 425 22,000  Level Atlanta Center
09:28AM 36.1742 -81.5206 193° South 369 425 22,000  Level Atlanta Center
09:29AM 36.0808 -81.5467 191° South 350 403 22,000  Level Atlanta Center
09:30AM 35.9875 -81.5700 192° South 350 403 22,000  Level Atlanta Center
09:31AM 35.9025 -81.5931 194° South 350 403 22,000  Level Atlanta Center
09:32AM 35.8092 -81.6217 191° South 350 403 22,000 -60 Level Atlanta Center
09:33AM 35.7158 -81.6447 193° South 350 403 21,900 -600 Descending Atlanta Center
09:34AM 35.6244 -81.6703 191° South 345 397 20,800 -960 Descending Atlanta Center
09:35AM 35.5289 -81.6936 192° South 350 403 20,000 -420 Descending Atlanta Center
09:36AM 35.4333 -81.7192 193° South 350 403 20,000  Level Atlanta Center
09:37AM 35.3422 -81.7447 192° South 350 403 20,000  Level Atlanta Center
09:38AM 35.2467 -81.7703 192° South 350 403 20,000  Level Atlanta Center
09:39AM 35.1533 -81.7956 193° South 350 403 20,000  Level Atlanta Center
09:40AM 35.0597 -81.8211 192° South 350 403 20,000  Level Atlanta Center
09:41AM 34.9581 -81.8467 187° South 350 403 20,000  Level Atlanta Center
09:42AM 34.8622 -81.8617 182° South 350 403 20,000  Level Atlanta Center
09:43AM 34.7664 -81.8667 180° South 350 403 20,000  Level Atlanta Center
09:44AM 34.6683 -81.8669 181° South 350 403 20,000  Level Atlanta Center
09:45AM 34.5744 -81.8692 181° South 356 410 20,000  Level Atlanta Center
09:46AM 34.4783 -81.8717 182° South 356 410 20,000  Level Atlanta Center
09:47AM 34.3764 -81.8769 181° South 361 415 20,000  Level Atlanta Center
09:48AM 34.2742 -81.8794 182° South 366 421 20,000  Level Atlanta Center
09:49AM 34.1739 -81.8844 181° South 366 421 20,000  Level Atlanta Center
09:50AM 34.0739 -81.8869 181° South 366 421 20,000  Level Atlanta Center
09:51AM 33.9675 -81.8897 182° South 366 421 20,000  Level Atlanta Center
09:52AM 33.8653 -81.8947 182° South 366 421 20,000 -420 Level Atlanta Center
09:53AM 33.7631 -81.9000 177° South 366 421 19,200 -540 Descending Atlanta Center
09:54AM 33.6606 -81.8925 172° South 366 421 19,000 -120 Descending Atlanta Center
09:56AM 33.4669 -81.8592 173° South 368 423 19,000  Level Jacksonville Center
09:57AM 33.3644 -81.8431 174° South 368 423 19,000  Level Jacksonville Center
09:58AM 33.2622 -81.8294 173° South 368 423 19,000  Level Jacksonville Center
09:59AM 33.1597 -81.8133 173° South 368 423 19,000  Level Jacksonville Center
10:00AM 33.0553 -81.7972 174° South 368 423 19,000  Level Jacksonville Center
10:01AM 32.9486 -81.7836 173° South 374 430 19,000  Level Jacksonville Center
10:02AM 32.8422 -81.7675 174° South 374 430 19,000  Level Jacksonville Center
10:03AM 32.7356 -81.7542 177° South 386 444 19,000  Level Jacksonville Center
10:04AM 32.6331 -81.7481 194° South 386 444 19,000  Level Jacksonville Center
10:05AM 32.5250 -81.7789 196° South 375 432 19,000  Level Jacksonville Center
10:06AM 32.4269 -81.8119 192° South 369 425 19,000  Level Jacksonville Center
10:07AM 32.3269 -81.8378 181° South 369 425 19,000  Level Jacksonville Center
10:08AM 32.2228 -81.8392 183° South 374 430 19,000  Level Jacksonville Center
10:09AM 32.1267 -81.8450 181° South 379 436 19,000  Level Jacksonville Center
10:10AM 32.0119 -81.8464 182° South 384 442 19,000  Level Jacksonville Center
10:11AM 31.9056 -81.8500 181° South 384 442 19,000  Level Jacksonville Center
10:12AM 31.8094 -81.8511 182° South 384 442 19,000  Level Jacksonville Center
10:13AM 31.6947 -81.8547 181° South 384 442 19,000  Level Jacksonville Center
10:14AM 31.6006 -81.8558 182° South 384 442 19,000  Level Jacksonville Center
10:15AM 31.4839 -81.8597 182° South 379 436 19,000  Level Jacksonville Center
10:16AM 31.3772 -81.8633 181° South 380 437 19,000 -840 Level Jacksonville Center
10:17AM 31.2689 -81.8644 176° South 386 444 17,400 -2,160 Descending Jacksonville Center
10:17AM 31.2436 -81.8622 184° South 377 434 16,300 -3,420 Descending Jacksonville Center
10:18AM 31.1686 -81.8681 182° South 375 432 14,000 -3,240 Descending Jacksonville Center
10:18AM 31.1058 -81.8711 177° South 355 409 11,700 -3,240 Descending Jacksonville Center
10:19AM 31.0706 -81.8692 182° South 358 412 10,800 -1,620 Descending Jacksonville Center
10:19AM 30.9953 -81.8722 176° South 343 395 9,900 -540 Descending Jacksonville Center
10:20AM 30.8950 -81.8636 171° South 348 400 9,900  Level Jacksonville Center
10:21AM 30.7989 -81.8453 172° South 351 404 9,900  Level Jacksonville Center
10:23AM 30.6922 -81.8272 172° South 348 400 10,000  Climbing Jacksonville Center
10:23AM 30.6253 -81.8158 173° South 272 313 9,900 -1,140 Descending Jacksonville Center
10:24AM 30.5522 -81.8047 177° South 289 333 8,000 -1,680 Descending Jacksonville Center
10:25AM 30.4789 -81.8006 208° Southwest 253 291 6,700 -1,380 Descending Jacksonville Center
10:26AM 30.4083 -81.8447 210° Southwest 253 291 5,100 -1,380 Descending Jacksonville Center
10:27AM 30.3544 -81.8814 212° Southwest 264 304 3,900 -600 Descending Jacksonville Center
10:28AM 30.2900 -81.9278 203° Southwest 255 293 4,000  Climbing Jacksonville Center
10:29AM 30.2256 -81.9597 186° South 243 280 3,900 -180 Descending Jacksonville Center
10:30AM 30.1650 -81.9675 177° South 212 244 3,700 -600 Descending Jacksonville Center
10:32AM 30.1025 -81.9633 171° South 209 241 2,700 -900 Descending Jacksonville Center
10:32AM 30.0522 -81.9542 105° East 211 243 1,900 -420 Descending Jacksonville Center
10:34AM 30.0392 -81.8969 20° North 195 224 2,000  Climbing Jacksonville Center
10:35AM 30.0850 -81.8772 North 177 204 2,000 -300 Level Jacksonville Center
10:36AM 30.1267 -81.8767 360° North 143 165 1,400 -600 Descending Jacksonville Center
10:37AM 30.1603 -81.8764 360° North 112 129 800 -600 Descending Jacksonville Center